sensor_id;sensor_type;location;lat;lon;timestamp;pressure;altitude;pressure_sealevel;temperature;humidity
36304;BME280;22335;49.800;8.596;2023-04-27T00:00:34;100672.47;;;15.25;36.87
36304;BME280;22335;49.800;8.596;2023-04-27T00:07:18;100680.50;;;15.35;36.63
36304;BME280;22335;49.800;8.596;2023-04-27T00:14:02;100662.44;;;15.29;37.23
36304;BME280;22335;49.800;8.596;2023-04-27T00:20:48;100660.28;;;15.40;36.87
36304;BME280;22335;49.800;8.596;2023-04-27T00:27:32;100665.66;;;15.45;36.36
36304;BME280;22335;49.800;8.596;2023-04-27T00:34:15;100656.22;;;15.23;37.31
36304;BME280;22335;49.800;8.596;2023-04-27T00:41:03;100625.25;;;14.68;37.62
36304;BME280;22335;49.800;8.596;2023-04-27T00:47:48;100662.69;;;14.69;37.86
36304;BME280;22335;49.800;8.596;2023-04-27T00:54:32;100660.41;;;14.71;37.93
36304;BME280;22335;49.800;8.596;2023-04-27T01:01:17;100655.13;;;14.74;37.92
36304;BME280;22335;49.800;8.596;2023-04-27T01:08:02;100663.91;;;14.63;38.36
36304;BME280;22335;49.800;8.596;2023-04-27T01:14:46;100677.63;;;14.49;38.50
36304;BME280;22335;49.800;8.596;2023-04-27T01:21:31;100674.16;;;14.29;38.59
36304;BME280;22335;49.800;8.596;2023-04-27T01:28:15;100680.38;;;14.35;38.87
36304;BME280;22335;49.800;8.596;2023-04-27T01:34:59;100678.44;;;14.22;38.97
36304;BME280;22335;49.800;8.596;2023-04-27T01:41:43;100690.75;;;14.11;39.39
36304;BME280;22335;49.800;8.596;2023-04-27T01:48:28;100692.88;;;14.00;39.81
36304;BME280;22335;49.800;8.596;2023-04-27T01:55:12;100665.31;;;13.86;39.72
36304;BME280;22335;49.800;8.596;2023-04-27T02:01:56;100700.69;;;13.93;39.49
36304;BME280;22335;49.800;8.596;2023-04-27T02:08:40;100698.44;;;13.95;39.87
36304;BME280;22335;49.800;8.596;2023-04-27T02:15:24;100706.03;;;13.84;40.18
36304;BME280;22335;49.800;8.596;2023-04-27T02:22:08;100689.59;;;13.65;40.33
36304;BME280;22335;49.800;8.596;2023-04-27T02:28:53;100708.91;;;13.60;40.04
36304;BME280;22335;49.800;8.596;2023-04-27T02:35:37;100674.53;;;13.25;40.33
36304;BME280;22335;49.800;8.596;2023-04-27T02:42:20;100692.28;;;13.13;40.84
36304;BME280;22335;49.800;8.596;2023-04-27T03:04:07;100714.84;;;12.86;40.66
36304;BME280;22335;49.800;8.596;2023-04-27T03:10:51;100664.88;;;12.41;40.70
36304;BME280;22335;49.800;8.596;2023-04-27T03:17:34;100701.72;;;12.83;40.68
36304;BME280;22335;49.800;8.596;2023-04-27T03:24:19;100697.84;;;12.84;40.68
36304;BME280;22335;49.800;8.596;2023-04-27T03:31:06;100704.66;;;12.68;40.94
36304;BME280;22335;49.800;8.596;2023-04-27T03:37:51;100707.78;;;12.80;40.84
36304;BME280;22335;49.800;8.596;2023-04-27T03:44:36;100693.25;;;12.80;40.54
36304;BME280;22335;49.800;8.596;2023-04-27T03:51:19;100669.16;;;12.53;40.83
36304;BME280;22335;49.800;8.596;2023-04-27T03:58:02;100702.03;;;12.58;40.86
36304;BME280;22335;49.800;8.596;2023-04-27T04:04:47;100700.22;;;12.48;41.07
36304;BME280;22335;49.800;8.596;2023-04-27T04:11:31;100714.75;;;12.49;40.85
36304;BME280;22335;49.800;8.596;2023-04-27T04:18:18;100704.13;;;12.42;41.16
36304;BME280;22335;49.800;8.596;2023-04-27T04:25:03;100708.50;;;12.43;41.07
36304;BME280;22335;49.800;8.596;2023-04-27T04:31:48;100702.66;;;12.50;40.99
36304;BME280;22335;49.800;8.596;2023-04-27T04:38:31;100697.94;;;12.55;41.55
36304;BME280;22335;49.800;8.596;2023-04-27T04:45:16;100658.41;;;12.32;41.39
36304;BME280;22335;49.800;8.596;2023-04-27T04:51:59;100683.22;;;12.46;41.34
36304;BME280;22335;49.800;8.596;2023-04-27T04:58:46;100702.19;;;12.66;41.90
36304;BME280;22335;49.800;8.596;2023-04-27T05:05:31;100705.19;;;12.70;42.58
36304;BME280;22335;49.800;8.596;2023-04-27T05:12:14;100719.94;;;12.74;41.77
36304;BME280;22335;49.800;8.596;2023-04-27T05:18:58;100680.59;;;12.36;41.91
36304;BME280;22335;49.800;8.596;2023-04-27T05:25:43;100682.84;;;12.29;42.13
36304;BME280;22335;49.800;8.596;2023-04-27T05:32:26;100735.53;;;12.55;42.06
36304;BME280;22335;49.800;8.596;2023-04-27T05:39:10;100742.34;;;12.57;42.10
36304;BME280;22335;49.800;8.596;2023-04-27T05:45:54;100739.28;;;12.64;42.42
36304;BME280;22335;49.800;8.596;2023-04-27T05:52:38;100752.56;;;12.76;42.43
36304;BME280;22335;49.800;8.596;2023-04-27T05:59:21;100759.78;;;12.96;41.87
36304;BME280;22335;49.800;8.596;2023-04-27T06:06:06;100755.50;;;13.08;42.16
36304;BME280;22335;49.800;8.596;2023-04-27T06:12:50;100764.38;;;13.43;41.65
36304;BME280;22335;49.800;8.596;2023-04-27T06:19:33;100767.28;;;13.71;41.47
36304;BME280;22335;49.800;8.596;2023-04-27T06:26:18;100757.94;;;13.91;41.37
36304;BME280;22335;49.800;8.596;2023-04-27T06:33:01;100772.97;;;13.93;41.08
36304;BME280;22335;49.800;8.596;2023-04-27T06:39:45;100777.44;;;14.08;40.45
36304;BME280;22335;49.800;8.596;2023-04-27T06:46:30;100778.75;;;14.11;39.74
36304;BME280;22335;49.800;8.596;2023-04-27T06:53:13;100787.66;;;14.21;39.82
36304;BME280;22335;49.800;8.596;2023-04-27T06:59:57;100784.09;;;14.53;39.18
36304;BME280;22335;49.800;8.596;2023-04-27T07:06:42;100785.03;;;14.63;39.01
36304;BME280;22335;49.800;8.596;2023-04-27T07:13:25;100782.28;;;14.76;38.41
36304;BME280;22335;49.800;8.596;2023-04-27T07:20:09;100785.16;;;14.85;37.78
36304;BME280;22335;49.800;8.596;2023-04-27T07:26:55;100792.41;;;14.95;37.81
36304;BME280;22335;49.800;8.596;2023-04-27T07:33:39;100724.97;;;14.51;37.94
36304;BME280;22335;49.800;8.596;2023-04-27T07:40:23;100789.44;;;14.91;38.06
36304;BME280;22335;49.800;8.596;2023-04-27T07:47:08;100786.59;;;14.96;38.07
36304;BME280;22335;49.800;8.596;2023-04-27T07:53:51;100787.50;;;15.06;38.00
36304;BME280;22335;49.800;8.596;2023-04-27T08:00:35;100772.00;;;15.10;38.18
36304;BME280;22335;49.800;8.596;2023-04-27T08:07:20;100776.00;;;15.17;37.56
36304;BME280;22335;49.800;8.596;2023-04-27T08:14:03;100786.34;;;15.34;37.90
36304;BME280;22335;49.800;8.596;2023-04-27T08:20:49;100776.53;;;15.56;37.67
36304;BME280;22335;49.800;8.596;2023-04-27T08:27:35;100763.94;;;15.77;37.50
36304;BME280;22335;49.800;8.596;2023-04-27T08:34:19;100769.06;;;15.93;37.75
36304;BME280;22335;49.800;8.596;2023-04-27T08:41:02;100764.81;;;16.09;37.17
36304;BME280;22335;49.800;8.596;2023-04-27T08:47:56;100753.50;;;16.42;36.78
36304;BME280;22335;49.800;8.596;2023-04-27T08:54:39;100766.09;;;16.65;36.35
36304;BME280;22335;49.800;8.596;2023-04-27T09:01:24;100685.75;;;16.44;36.04
36304;BME280;22335;49.800;8.596;2023-04-27T09:08:09;100759.59;;;17.01;35.87
36304;BME280;22335;49.800;8.596;2023-04-27T09:14:56;100762.72;;;17.17;35.06
36304;BME280;22335;49.800;8.596;2023-04-27T09:21:39;100760.16;;;17.29;35.17
36304;BME280;22335;49.800;8.596;2023-04-27T09:28:25;100734.81;;;17.62;34.92
36304;BME280;22335;49.800;8.596;2023-04-27T09:35:20;100743.94;;;17.88;34.33
36304;BME280;22335;49.800;8.596;2023-04-27T09:42:04;100738.69;;;18.22;34.40
36304;BME280;22335;49.800;8.596;2023-04-27T09:48:51;100729.81;;;18.46;34.23
36304;BME280;22335;49.800;8.596;2023-04-27T09:55:37;100739.16;;;18.79;33.67
36304;BME280;22335;49.800;8.596;2023-04-27T10:02:25;100724.16;;;19.10;33.59
36304;BME280;22335;49.800;8.596;2023-04-27T10:09:11;100721.91;;;19.33;33.15
36304;BME280;22335;49.800;8.596;2023-04-27T10:15:55;100725.53;;;19.46;32.95
36304;BME280;22335;49.800;8.596;2023-04-27T10:22:40;100718.66;;;19.73;32.55
36304;BME280;22335;49.800;8.596;2023-04-27T10:29:34;100707.31;;;19.99;32.80
36304;BME280;22335;49.800;8.596;2023-04-27T10:36:19;100717.41;;;20.16;32.53
36304;BME280;22335;49.800;8.596;2023-04-27T10:43:09;100565.69;;;19.53;32.42
36304;BME280;22335;49.800;8.596;2023-04-27T10:49:55;100698.53;;;20.67;32.75
36304;BME280;22335;49.800;8.596;2023-04-27T10:56:39;100699.00;;;20.69;33.03
36304;BME280;22335;49.800;8.596;2023-04-27T11:03:22;100698.72;;;20.49;33.06
36304;BME280;22335;49.800;8.596;2023-04-27T11:10:08;100684.50;;;20.51;33.22
36304;BME280;22335;49.800;8.596;2023-04-27T11:16:52;100690.44;;;20.74;31.94
36304;BME280;22335;49.800;8.596;2023-04-27T11:23:36;100677.31;;;20.99;31.93
36304;BME280;22335;49.800;8.596;2023-04-27T11:30:22;100671.53;;;21.04;31.32
36304;BME280;22335;49.800;8.596;2023-04-27T11:37:06;100670.03;;;21.07;32.29
36304;BME280;22335;49.800;8.596;2023-04-27T11:43:52;100668.84;;;21.08;32.24
36304;BME280;22335;49.800;8.596;2023-04-27T11:50:37;100660.28;;;21.01;31.28
36304;BME280;22335;49.800;8.596;2023-04-27T11:57:23;100648.47;;;21.04;32.11
36304;BME280;22335;49.800;8.596;2023-04-27T12:04:07;100654.06;;;21.32;32.23
36304;BME280;22335;49.800;8.596;2023-04-27T12:10:52;100634.78;;;21.51;31.57
36304;BME280;22335;49.800;8.596;2023-04-27T12:17:37;100620.47;;;21.65;31.55
36304;BME280;22335;49.800;8.596;2023-04-27T12:24:20;100613.28;;;21.80;30.94
36304;BME280;22335;49.800;8.596;2023-04-27T12:31:05;100610.53;;;21.96;30.41
36304;BME280;22335;49.800;8.596;2023-04-27T12:37:48;100603.06;;;22.00;30.57
36304;BME280;22335;49.800;8.596;2023-04-27T12:44:33;100611.59;;;22.07;30.55
36304;BME280;22335;49.800;8.596;2023-04-27T12:51:18;100602.34;;;22.03;30.10
36304;BME280;22335;49.800;8.596;2023-04-27T12:58:01;100610.88;;;22.10;30.10
36304;BME280;22335;49.800;8.596;2023-04-27T13:04:46;100612.78;;;22.06;30.19
36304;BME280;22335;49.800;8.596;2023-04-27T13:11:31;100608.91;;;21.95;30.23
36304;BME280;22335;49.800;8.596;2023-04-27T13:18:14;100600.41;;;22.19;30.10
36304;BME280;22335;49.800;8.596;2023-04-27T13:24:58;100588.53;;;22.38;29.67
36304;BME280;22335;49.800;8.596;2023-04-27T13:31:43;100583.84;;;22.58;30.12
36304;BME280;22335;49.800;8.596;2023-04-27T13:38:27;100560.91;;;22.49;29.50
36304;BME280;22335;49.800;8.596;2023-04-27T13:45:10;100595.41;;;22.60;29.39
36304;BME280;22335;49.800;8.596;2023-04-27T13:51:55;100592.00;;;22.51;28.98
36304;BME280;22335;49.800;8.596;2023-04-27T13:58:39;100595.25;;;22.53;29.00
36304;BME280;22335;49.800;8.596;2023-04-27T14:05:22;100587.97;;;22.64;28.93
36304;BME280;22335;49.800;8.596;2023-04-27T14:12:08;100574.84;;;22.49;29.25
36304;BME280;22335;49.800;8.596;2023-04-27T14:18:52;100584.97;;;22.57;29.03
36304;BME280;22335;49.800;8.596;2023-04-27T14:25:36;100603.97;;;22.51;29.06
36304;BME280;22335;49.800;8.596;2023-04-27T14:32:21;100588.59;;;22.42;28.83
36304;BME280;22335;49.800;8.596;2023-04-27T14:39:04;100556.34;;;22.41;28.69
36304;BME280;22335;49.800;8.596;2023-04-27T14:45:49;100592.88;;;22.71;28.70
36304;BME280;22335;49.800;8.596;2023-04-27T14:52:37;100579.75;;;22.71;28.87
36304;BME280;22335;49.800;8.596;2023-04-27T14:59:21;100588.69;;;22.61;28.93
36304;BME280;22335;49.800;8.596;2023-04-27T15:06:04;100592.81;;;22.67;29.08
36304;BME280;22335;49.800;8.596;2023-04-27T15:12:49;100587.38;;;22.74;28.63
36304;BME280;22335;49.800;8.596;2023-04-27T15:19:33;100540.69;;;22.52;28.35
36304;BME280;22335;49.800;8.596;2023-04-27T15:26:16;100570.38;;;22.79;28.71
36304;BME280;22335;49.800;8.596;2023-04-27T15:33:01;100558.50;;;22.83;28.35
36304;BME280;22335;49.800;8.596;2023-04-27T15:39:45;100556.06;;;22.81;28.63
36304;BME280;22335;49.800;8.596;2023-04-27T15:46:28;100504.66;;;22.43;28.81
36304;BME280;22335;49.800;8.596;2023-04-27T15:53:15;100519.59;;;22.54;28.65
36304;BME280;22335;49.800;8.596;2023-04-27T15:59:58;100513.81;;;22.44;28.67
36304;BME280;22335;49.800;8.596;2023-04-27T16:06:50;100514.25;;;22.46;28.67
36304;BME280;22335;49.800;8.596;2023-04-27T16:13:35;100495.03;;;22.60;28.72
36304;BME280;22335;49.800;8.596;2023-04-27T16:20:18;100492.50;;;22.71;28.51
36304;BME280;22335;49.800;8.596;2023-04-27T16:27:02;100485.28;;;22.70;28.74
36304;BME280;22335;49.800;8.596;2023-04-27T16:33:48;100484.22;;;22.74;28.98
36304;BME280;22335;49.800;8.596;2023-04-27T16:40:32;100457.72;;;22.65;28.92
36304;BME280;22335;49.800;8.596;2023-04-27T16:47:16;100489.91;;;22.82;29.01
36304;BME280;22335;49.800;8.596;2023-04-27T16:54:01;100487.31;;;22.89;29.00
36304;BME280;22335;49.800;8.596;2023-04-27T17:00:44;100489.72;;;22.90;28.98
36304;BME280;22335;49.800;8.596;2023-04-27T17:07:28;100485.84;;;22.95;29.32
36304;BME280;22335;49.800;8.596;2023-04-27T17:14:14;100481.50;;;22.97;29.25
36304;BME280;22335;49.800;8.596;2023-04-27T17:20:58;100482.75;;;22.81;28.94
36304;BME280;22335;49.800;8.596;2023-04-27T17:27:41;100476.66;;;22.75;29.08
36304;BME280;22335;49.800;8.596;2023-04-27T17:34:26;100470.84;;;22.84;29.26
36304;BME280;22335;49.800;8.596;2023-04-27T17:41:09;100472.97;;;22.90;29.38
36304;BME280;22335;49.800;8.596;2023-04-27T17:47:53;100470.41;;;22.82;29.26
36304;BME280;22335;49.800;8.596;2023-04-27T17:54:38;100462.84;;;22.82;29.11
36304;BME280;22335;49.800;8.596;2023-04-27T18:01:22;100474.53;;;22.68;29.20
36304;BME280;22335;49.800;8.596;2023-04-27T18:08:05;100470.47;;;22.66;29.11
36304;BME280;22335;49.800;8.596;2023-04-27T18:14:50;100467.69;;;22.66;28.87
36304;BME280;22335;49.800;8.596;2023-04-27T18:21:34;100455.44;;;22.70;28.96
36304;BME280;22335;49.800;8.596;2023-04-27T18:28:18;100461.75;;;22.67;29.36
36304;BME280;22335;49.800;8.596;2023-04-27T18:35:03;100454.19;;;22.68;29.30
36304;BME280;22335;49.800;8.596;2023-04-27T18:41:47;100451.25;;;22.61;29.17
36304;BME280;22335;49.800;8.596;2023-04-27T18:48:31;100452.06;;;22.61;29.28
36304;BME280;22335;49.800;8.596;2023-04-27T18:55:17;100453.09;;;22.53;29.58
36304;BME280;22335;49.800;8.596;2023-04-27T19:02:01;100466.22;;;22.52;30.06
36304;BME280;22335;49.800;8.596;2023-04-27T19:08:44;100465.56;;;22.40;30.13
36304;BME280;22335;49.800;8.596;2023-04-27T19:15:29;100462.09;;;22.27;30.43
36304;BME280;22335;49.800;8.596;2023-04-27T19:22:13;100465.50;;;22.20;30.53
36304;BME280;22335;49.800;8.596;2023-04-27T19:28:56;100461.56;;;22.21;30.94
36304;BME280;22335;49.800;8.596;2023-04-27T19:35:41;100446.25;;;22.15;31.02
36304;BME280;22335;49.800;8.596;2023-04-27T19:42:25;100464.13;;;22.14;31.16
36304;BME280;22335;49.800;8.596;2023-04-27T19:49:08;100455.88;;;22.02;31.05
36304;BME280;22335;49.800;8.596;2023-04-27T19:55:53;100455.50;;;21.84;31.47
36304;BME280;22335;49.800;8.596;2023-04-27T20:02:37;100454.16;;;21.62;31.38
36304;BME280;22335;49.800;8.596;2023-04-27T20:09:21;100454.59;;;21.48;31.74
36304;BME280;22335;49.800;8.596;2023-04-27T20:16:05;100449.09;;;21.36;31.76
36304;BME280;22335;49.800;8.596;2023-04-27T20:22:50;100444.69;;;21.35;31.99
36304;BME280;22335;49.800;8.596;2023-04-27T20:29:33;100437.38;;;21.14;32.23
36304;BME280;22335;49.800;8.596;2023-04-27T20:36:19;100426.94;;;20.95;32.29
36304;BME280;22335;49.800;8.596;2023-04-27T20:43:03;100432.94;;;20.82;32.52
36304;BME280;22335;49.800;8.596;2023-04-27T20:49:47;100432.00;;;20.78;32.85
36304;BME280;22335;49.800;8.596;2023-04-27T20:56:31;100411.19;;;20.71;32.98
36304;BME280;22335;49.800;8.596;2023-04-27T21:03:15;100411.56;;;20.70;32.86
36304;BME280;22335;49.800;8.596;2023-04-27T21:09:59;100402.75;;;20.68;32.91
36304;BME280;22335;49.800;8.596;2023-04-27T21:16:47;100389.47;;;20.61;33.40
36304;BME280;22335;49.800;8.596;2023-04-27T21:23:33;100395.13;;;20.65;33.25
36304;BME280;22335;49.800;8.596;2023-04-27T21:30:17;100395.34;;;20.72;32.81
36304;BME280;22335;49.800;8.596;2023-04-27T21:37:01;100388.25;;;20.75;32.93
36304;BME280;22335;49.800;8.596;2023-04-27T21:43:45;100379.38;;;20.69;32.77
36304;BME280;22335;49.800;8.596;2023-04-27T21:50:28;100375.44;;;20.70;33.10
36304;BME280;22335;49.800;8.596;2023-04-27T21:57:13;100369.25;;;20.77;32.98
36304;BME280;22335;49.800;8.596;2023-04-27T22:03:57;100369.09;;;20.85;33.07
36304;BME280;22335;49.800;8.596;2023-04-27T22:10:42;100370.38;;;20.88;33.33
36304;BME280;22335;49.800;8.596;2023-04-27T22:17:27;100368.72;;;20.87;33.04
36304;BME280;22335;49.800;8.596;2023-04-27T22:24:10;100364.81;;;20.88;33.32
36304;BME280;22335;49.800;8.596;2023-04-27T22:30:54;100349.47;;;20.78;33.30
36304;BME280;22335;49.800;8.596;2023-04-27T22:37:39;100342.59;;;20.60;33.58
36304;BME280;22335;49.800;8.596;2023-04-27T22:44:24;100350.09;;;20.59;33.74
36304;BME280;22335;49.800;8.596;2023-04-27T22:51:08;100352.09;;;20.59;33.75
36304;BME280;22335;49.800;8.596;2023-04-27T22:57:53;100344.69;;;20.63;33.72
36304;BME280;22335;49.800;8.596;2023-04-27T23:04:36;100347.88;;;20.65;33.51
36304;BME280;22335;49.800;8.596;2023-04-27T23:11:21;100334.69;;;20.62;33.55
36304;BME280;22335;49.800;8.596;2023-04-27T23:18:08;100270.88;;;20.21;33.60
36304;BME280;22335;49.800;8.596;2023-04-27T23:24:51;100263.28;;;20.06;34.20
36304;BME280;22335;49.800;8.596;2023-04-27T23:31:35;100315.84;;;20.27;34.55
36304;BME280;22335;49.800;8.596;2023-04-27T23:38:20;100304.56;;;20.20;35.30
36304;BME280;22335;49.800;8.596;2023-04-27T23:45:04;100302.25;;;20.10;35.66
36304;BME280;22335;49.800;8.596;2023-04-27T23:51:50;100305.91;;;19.98;36.76
36304;BME280;22335;49.800;8.596;2023-04-27T23:58:36;100298.72;;;19.97;36.87
